75000 - Paris

Modèle arome - 05/05/2026 00:00
Altitude : 28 - 131m

05/05/2026 à 11:58 (UTC)

Date (UTC!) Model Picto Température Min Max T850 T950 Humidité Précipitation Neige (proba) Pression Nuages Bas Nuages Moyen Nuages Haut Nuages Total Nuages Corrigés CAPE Iso Vent (dir) Vent (vitesse) Rafales (vitesse)
05/05 - 01:00 arome 14,15 14,15 14,34 5,79 11,36 87,76 0,00 (1h) 0,00 10,10 63,80 0,00 100,00 100,01 63,80 70,89 0,00 31,62 9,13 17,59
05/05 - 02:00 arome 13,51 13,51 14,15 6,39 11,47 92,68 0,00 (1h) 0,00 10,10 100,00 0,20 100,00 100,01 100,00 51,51 0,00 45,26 11,20 22,75
05/05 - 03:00 arome 13,57 13,46 13,57 6,02 10,51 94,10 0,00 (1h) 0,00 10,10 100,00 24,15 100,00 100,01 100,00 49,39 0,00 43,07 9,07 22,52
05/05 - 04:00 arome 13,38 13,38 13,57 6,19 10,28 96,68 0,00 (1h) 0,00 10,10 100,00 96,80 100,00 100,01 100,00 65,19 0,00 42,99 9,45 20,61
05/05 - 05:00 arome 13,49 13,30 13,49 5,87 10,09 92,05 0,00 (1h) 0,00 10,09 100,00 100,00 100,00 100,01 100,00 25,00 0,00 31,11 11,98 24,26
05/05 - 06:00 arome 13,22 13,14 13,57 5,57 9,93 92,62 0,00 (1h) 0,00 10,09 100,00 99,95 100,00 100,01 100,00 23,77 0,00 28,39 12,64 25,77
05/05 - 07:00 arome 13,07 13,06 13,22 5,17 9,77 92,33 0,00 (1h) 0,00 10,09 100,00 100,00 100,00 100,01 100,00 26,39 0,00 31,88 12,68 26,78
05/05 - 08:00 arome 13,11 13,07 13,19 5,53 9,83 92,74 0,00 (1h) 0,00 10,09 100,00 100,00 100,00 100,01 100,00 19,15 0,00 29,19 11,96 25,84
05/05 - 09:00 arome 14,13 13,11 14,13 5,46 9,86 84,90 0,00 (1h) 0,00 10,08 100,00 100,00 100,00 100,01 100,00 26,23 0,00 42,47 12,10 24,60
05/05 - 10:00 arome 14,87 14,14 14,97 5,43 10,12 80,63 0,00 (1h) 0,00 10,08 100,00 100,00 100,00 100,01 100,00 58,75 0,00 32,18 12,84 26,05
05/05 - 11:00 arome 15,74 14,82 15,75 5,39 10,77 75,81 0,00 (1h) 0,00 10,08 62,70 100,00 100,00 100,01 100,00 83,28 0,00 30,66 12,85 26,26
05/05 - 12:00 arome 15,66 15,66 16,05 5,37 10,72 76,49 0,00 (1h) 0,00 10,07 70,95 100,00 100,00 100,01 100,00 73,73 0,00 9,29 15,83 31,83
05/05 - 13:00 arome 14,84 14,84 15,78 5,10 10,14 81,89 0,04 (1h) 0,00 10,07 100,00 100,00 100,00 100,01 100,00 73,30 0,00 14,26 17,53 36,32
05/05 - 14:00 arome 14,79 14,48 14,85 5,02 10,03 81,24 0,33 (1h) 0,00 10,07 100,00 100,00 100,00 100,01 100,00 65,24 0,00 14,64 14,96 34,91
05/05 - 15:00 arome 14,66 14,64 14,78 5,11 10,11 81,97 1,16 (1h) 0,00 10,07 100,00 100,00 100,00 100,01 100,00 80,50 0,00 19,08 12,11 30,21
05/05 - 16:00 arome 14,11 14,11 14,67 6,15 10,02 84,54 3,43 (1h) 0,00 10,06 46,60 100,00 100,00 100,01 100,00 13,05 0,00 0,38 21,78 43,05
05/05 - 17:00 arome 14,13 14,09 14,21 4,98 9,76 82,80 0,38 (1h) 0,00 10,06 100,00 100,00 100,00 100,01 100,00 32,24 0,00 13,51 16,03 42,93
05/05 - 18:00 arome 13,79 13,78 14,13 4,91 9,72 84,71 0,18 (1h) 0,00 10,06 100,00 100,00 100,00 100,01 100,00 34,43 0,00 12,87 15,03 32,15
05/05 - 19:00 arome 13,43 13,44 13,77 5,12 9,41 85,39 1,13 (1h) 0,00 10,06 100,00 100,00 100,00 100,01 100,00 52,56 0,00 16,66 15,07 31,00
05/05 - 20:00 arome 13,05 13,05 13,42 5,05 9,23 87,34 0,73 (1h) 0,00 10,07 100,00 100,00 100,00 100,01 100,00 48,02 0,00 14,86 14,60 31,74
05/05 - 21:00 arome 12,80 12,80 13,05 4,66 9,01 89,03 3,22 (1h) 0,00 10,07 100,00 100,00 100,00 100,01 100,00 43,76 0,00 4,62 11,63 29,38
05/05 - 22:00 arome 12,63 12,63 12,80 4,89 8,67 85,48 0,67 (1h) 0,00 10,07 100,00 100,00 100,00 100,01 100,00 39,25 0,00 4,91 15,14 31,86
05/05 - 23:00 arome 12,51 12,51 12,63 4,80 8,56 85,90 0,55 (1h) 0,00 10,07 100,00 100,00 100,00 100,01 100,00 53,55 0,00 6,45 14,09 31,59
06/05 - 00:00 arome 11,87 11,87 12,50 4,74 7,84 85,78 0,00 (1h) 0,00 10,07 100,00 100,00 100,00 100,01 100,00 72,35 0,00 354,15 12,01 28,14
06/05 - 01:00 arome 11,28 11,28 11,85 4,39 7,39 86,66 5,21 (1h) 0,00 10,07 100,00 100,00 88,50 100,01 100,00 67,78 0,00 344,53 10,80 24,29
06/05 - 02:00 arome 10,98 10,98 11,29 4,43 7,19 87,53 1,18 (1h) 0,00 10,07 100,00 100,00 100,00 100,01 100,00 75,40 0,00 332,30 10,61 22,15
06/05 - 03:00 arome 10,78 10,78 10,97 4,47 7,08 87,94 0,23 (1h) 0,00 10,07 100,00 100,00 96,00 100,01 100,00 90,75 0,00 333,69 10,88 21,74
06/05 - 04:00 arome 10,73 10,72 10,78 4,50 7,02 87,69 0,13 (1h) 0,00 10,07 100,00 100,00 100,00 100,01 100,00 95,03 0,00 334,20 10,84 23,60
06/05 - 05:00 arome 10,74 10,71 10,76 3,65 6,92 87,05 0,02 (1h) 0,00 10,07 100,00 100,00 0,00 100,01 100,00 59,72 0,00 347,59 7,37 21,47
06/05 - 06:00 arome 10,70 10,51 10,76 3,51 6,68 87,16 1,05 (1h) 0,00 10,07 100,00 100,00 0,00 100,01 100,00 20,80 0,00 350,41 10,81 21,31
06/05 - 07:00 arome 10,55 10,55 10,70 3,26 6,39 85,74 0,81 (1h) 0,00 10,07 100,00 100,00 0,00 100,01 100,00 21,57 0,00 355,11 12,68 25,56
06/05 - 08:00 arome 10,76 10,42 10,76 3,06 6,49 84,86 0,72 (1h) 0,00 10,08 100,00 100,00 0,00 100,01 100,00 18,87 0,00 354,67 13,96 28,04
06/05 - 09:00 arome 11,27 10,76 11,27 2,97 6,73 83,40 0,34 (1h) 0,00 10,08 100,00 100,00 93,15 100,01 100,00 38,08 0,00 354,34 13,49 28,25
06/05 - 10:00 arome 11,91 11,31 11,92 3,14 6,97 80,79 0,56 (1h) 0,00 10,08 100,00 100,00 69,00 100,01 100,00 32,93 0,00 349,29 14,14 28,40
06/05 - 11:00 arome 12,50 11,88 12,50 2,93 7,40 75,22 0,18 (1h) 0,00 10,09 100,00 100,00 84,10 100,01 100,00 54,87 0,00 350,17 13,70 29,03
06/05 - 12:00 arome 12,82 12,50 12,84 2,56 7,77 73,79 0,00 (1h) 0,00 10,09 99,55 100,00 97,90 100,01 100,00 51,94 0,00 354,55 14,39 29,46
06/05 - 13:00 arome 13,73 12,78 13,92 2,34 8,60 68,48 0,00 (1h) 0,00 10,09 100,00 100,00 100,00 100,01 100,00 54,07 0,00 21,77 13,49 28,81
06/05 - 14:00 arome 13,52 13,02 13,84 2,17 8,70 71,64 0,72 (1h) 0,00 10,09 93,90 100,00 100,00 100,01 100,00 52,13 0,00 352,25 9,88 29,76
06/05 - 15:00 arome 14,27 13,57 14,34 2,18 9,07 65,64 0,05 (1h) 0,00 10,09 100,00 100,00 100,00 100,01 100,00 56,93 0,00 345,27 11,61 24,26
06/05 - 16:00 arome 14,08 13,34 14,28 1,87 9,04 66,44 0,70 (1h) 0,00 10,09 85,60 99,80 100,00 100,01 99,80 46,53 0,00 0,63 9,79 26,66
06/05 - 17:00 arome 13,81 13,82 14,23 1,66 8,93 65,93 0,02 (1h) 0,00 10,09 100,00 100,00 100,00 100,01 100,00 29,79 0,00 351,39 10,34 22,07
06/05 - 18:00 arome 13,49 13,48 13,81 1,84 8,94 64,56 0,11 (1h) 0,00 10,09 85,65 100,00 100,00 100,01 100,00 4,89 0,00 338,32 9,26 21,02